Time;durP1;ratioP1;P1;durP2;ratioP2;P2;SDS_P1;SDS_P2;PMS_P1;PMS_P2;Temp;Humidity;BMP_temperature;BMP_pressure;BME280_temperature;BME280_humidity;BME280_pressure;Samples;Min_cycle;Max_cycle;Signal;HPM_P1;HPM_P2
2021/09/03 00:01:19;;;;;;;4.07;2.90;;;;;;;27.03;39.39;101630.47;144992;674;6004;-85
2021/09/03 00:03:46;;;;;;;3.30;2.70;;;;;;;27.11;38.96;101616.97;144992;579;6004;-85
2021/09/03 00:06:13;;;;;;;3.30;3.00;;;;;;;27.13;38.18;101628.47;144992;572;6005;-84
2021/09/03 00:08:40;;;;;;;5.60;3.15;;;;;;;27.09;39.14;101625.00;144992;600;6004;-85
2021/09/03 00:11:07;;;;;;;4.25;2.67;;;;;;;27.03;38.67;101619.81;144992;676;6004;-83
2021/09/03 00:13:33;;;;;;;3.17;2.85;;;;;;;27.05;38.18;101615.31;144992;611;6005;-86
2021/09/03 00:16:00;;;;;;;4.68;2.95;;;;;;;27.04;39.04;101616.22;144992;595;6004;-86
2021/09/03 00:18:26;;;;;;;8.05;2.80;;;;;;;26.88;38.32;101614.88;144993;596;6000;-87
2021/09/03 00:20:53;;;;;;;3.87;2.75;;;;;;;26.81;38.74;101616.81;144993;592;6002;-84
2021/09/03 00:23:19;;;;;;;3.85;2.87;;;;;;;26.64;39.14;101613.63;144993;585;6002;-86
2021/09/03 00:25:46;;;;;;;3.62;2.70;;;;;;;26.62;39.08;101611.00;144993;581;6002;-86
2021/09/03 00:28:13;;;;;;;3.10;2.80;;;;;;;26.62;39.04;101616.31;144993;733;6002;-85
2021/09/03 00:30:39;;;;;;;3.10;2.80;;;;;;;26.70;39.47;101611.72;144993;573;6002;-85
2021/09/03 00:33:06;;;;;;;3.67;2.85;;;;;;;26.79;38.59;101618.62;144993;590;6002;-85
2021/09/03 00:35:33;;;;;;;3.85;2.95;;;;;;;26.86;38.44;101614.91;144993;595;6002;-86
2021/09/03 00:37:59;;;;;;;3.35;2.80;;;;;;;26.82;37.89;101610.56;144993;665;6002;-87
2021/09/03 00:40:26;;;;;;;4.00;2.78;;;;;;;26.74;37.79;101608.09;144993;571;6002;-84
2021/09/03 00:42:52;;;;;;;3.58;2.60;;;;;;;26.74;38.77;101607.19;144993;628;6002;-86
2021/09/03 00:45:19;;;;;;;2.75;2.55;;;;;;;26.81;38.90;101613.28;144992;598;6002;-85
2021/09/03 00:47:45;;;;;;;3.22;2.70;;;;;;;26.81;38.43;101603.50;144993;576;6002;-86
2021/09/03 00:50:12;;;;;;;3.97;2.70;;;;;;;26.71;38.21;101604.59;144992;588;6002;-87
2021/09/03 00:52:39;;;;;;;3.20;2.58;;;;;;;26.57;38.29;101608.44;144993;587;6002;-88
2021/09/03 00:55:06;;;;;;;3.10;2.80;;;;;;;26.67;38.68;101610.94;144992;577;6002;-86
2021/09/03 00:57:33;;;;;;;3.28;2.75;;;;;;;26.66;37.94;101607.41;144992;563;6002;-86
2021/09/03 01:00:00;;;;;;;5.40;2.80;;;;;;;26.59;38.69;101600.41;144992;666;6002;-87
2021/09/03 01:02:26;;;;;;;3.75;2.50;;;;;;;26.62;38.31;101603.00;144992;587;6002;-86
2021/09/03 01:04:53;;;;;;;3.87;2.75;;;;;;;26.51;38.50;101602.38;144993;563;5992;-85
2021/09/03 01:07:19;;;;;;;3.33;2.80;;;;;;;26.49;38.21;101606.87;144993;594;6002;-85
2021/09/03 01:09:45;;;;;;;3.40;2.92;;;;;;;26.45;37.79;101608.72;144993;718;6002;-84
2021/09/03 01:12:12;;;;;;;5.60;2.80;;;;;;;26.48;38.73;101615.75;144993;701;6002;-85
2021/09/03 01:14:38;;;;;;;3.50;2.70;;;;;;;26.50;38.08;101608.62;144993;598;6002;-86
2021/09/03 01:17:05;;;;;;;2.60;2.40;;;;;;;26.37;38.64;101611.53;144993;747;6002;-85
2021/09/03 01:19:31;;;;;;;3.05;2.67;;;;;;;26.47;38.03;101614.00;144993;718;6002;-87
2021/09/03 01:21:58;;;;;;;4.80;2.78;;;;;;;26.42;37.11;101612.34;144993;584;6002;-85
2021/09/03 01:24:25;;;;;;;2.97;2.67;;;;;;;26.44;38.14;101609.66;144993;598;6002;-85
2021/09/03 01:26:51;;;;;;;3.95;2.83;;;;;;;26.51;37.76;101610.38;144993;793;6002;-86
2021/09/03 01:29:18;;;;;;;3.10;2.70;;;;;;;26.53;37.97;101609.41;144993;591;6002;-86
2021/09/03 01:31:45;;;;;;;2.95;2.75;;;;;;;26.57;37.84;101611.09;144993;578;6002;-85
2021/09/03 01:34:11;;;;;;;2.72;2.53;;;;;;;26.61;38.05;101611.91;144993;591;6002;-85
2021/09/03 01:36:38;;;;;;;3.00;2.70;;;;;;;26.54;37.61;101610.31;144993;591;6002;-84
2021/09/03 01:39:05;;;;;;;3.72;2.95;;;;;;;26.53;37.73;101613.88;144993;914;6002;-85
2021/09/03 01:41:32;;;;;;;3.28;3.03;;;;;;;26.52;37.84;101612.09;144993;664;6002;-86
2021/09/03 01:43:59;;;;;;;3.85;3.00;;;;;;;26.53;37.54;101613.88;144993;866;6002;-86
2021/09/03 01:46:25;;;;;;;3.28;2.97;;;;;;;26.47;37.74;101604.25;144993;563;6002;-86
2021/09/03 01:48:51;;;;;;;4.10;2.95;;;;;;;26.43;37.78;101597.22;144993;566;6002;-87
2021/09/03 01:51:18;;;;;;;4.40;2.85;;;;;;;26.42;38.27;101601.69;144993;579;6002;-86
2021/09/03 01:53:44;;;;;;;2.87;2.58;;;;;;;26.38;38.27;101588.47;144993;708;6002;-87
2021/09/03 01:56:11;;;;;;;4.15;2.70;;;;;;;26.39;38.12;101587.56;144993;580;6002;-87
2021/09/03 01:58:37;;;;;;;2.90;2.70;;;;;;;26.44;37.92;101596.34;144994;704;5002;-87
2021/09/03 02:01:04;;;;;;;2.80;2.60;;;;;;;26.46;37.21;101589.19;144994;612;5002;-87
2021/09/03 02:03:31;;;;;;;4.40;2.67;;;;;;;26.33;37.41;101585.06;144994;825;5002;-85
2021/09/03 02:05:58;;;;;;;5.20;3.17;;;;;;;26.24;37.68;101586.13;144994;575;5002;-87
2021/09/03 02:08:24;;;;;;;2.83;2.55;;;;;;;26.21;37.97;101583.53;144994;569;5002;-86
2021/09/03 02:10:54;;;;;;;4.60;2.53;;;;;;;26.22;37.46;101594.12;144994;766;5002;-84
2021/09/03 02:13:22;;;;;;;2.90;2.70;;;;;;;26.27;37.60;101590.50;144994;591;5002;-86
2021/09/03 02:15:51;;;;;;;3.12;2.80;;;;;;;26.29;37.51;101592.22;144994;590;5002;-85
2021/09/03 02:18:18;;;;;;;5.47;2.95;;;;;;;26.32;37.48;101589.47;144994;569;5002;-87
2021/09/03 02:20:45;;;;;;;3.00;2.70;;;;;;;26.47;37.93;101593.59;144994;571;5002;-86
2021/09/03 02:23:12;;;;;;;3.97;3.05;;;;;;;26.51;37.54;101597.06;144994;761;5002;-85
2021/09/03 02:25:39;;;;;;;4.95;2.60;;;;;;;26.53;37.68;101597.91;144994;563;5002;-86
2021/09/03 02:28:06;;;;;;;2.78;2.45;;;;;;;26.58;37.72;101596.00;144994;570;5002;-83
2021/09/03 02:30:35;;;;;;;4.40;2.75;;;;;;;26.60;37.25;101608.38;144994;566;5002;-86
2021/09/03 02:33:02;;;;;;;4.75;2.85;;;;;;;26.60;37.51;101600.38;144994;591;5002;-85
2021/09/03 02:35:29;;;;;;;3.28;2.80;;;;;;;26.69;37.37;101601.97;144994;567;5002;-85
2021/09/03 02:37:57;;;;;;;2.90;2.70;;;;;;;26.75;37.13;101608.97;144994;665;5002;-82
2021/09/03 02:40:26;;;;;;;4.40;2.83;;;;;;;26.60;37.43;101592.41;144994;820;5002;-87
2021/09/03 02:42:52;;;;;;;4.03;2.78;;;;;;;26.49;37.12;101602.41;144994;624;5002;-85
2021/09/03 02:45:19;;;;;;;3.78;2.70;;;;;;;26.38;37.25;101594.69;144994;600;5002;-86
2021/09/03 02:47:47;;;;;;;5.15;2.65;;;;;;;26.37;37.36;101598.22;144994;593;5002;-87
2021/09/03 02:50:13;;;;;;;3.15;2.80;;;;;;;26.36;36.77;101592.94;144994;882;5002;-87
2021/09/03 02:52:41;;;;;;;4.15;2.60;;;;;;;26.31;37.23;101603.72;144994;576;5002;-86
2021/09/03 02:55:11;;;;;;;3.58;2.80;;;;;;;26.34;37.62;101608.06;144994;599;5002;-86
2021/09/03 02:57:39;;;;;;;3.20;2.90;;;;;;;26.40;37.74;101613.28;144994;572;5002;-86
2021/09/03 03:00:08;;;;;;;3.33;2.60;;;;;;;26.37;37.66;101616.87;144994;582;5002;-84
2021/09/03 03:02:35;;;;;;;2.83;2.50;;;;;;;26.36;37.86;101617.78;144994;569;5002;-86
2021/09/03 03:05:02;;;;;;;4.43;2.80;;;;;;;26.32;37.64;101628.53;144994;671;5002;-85
2021/09/03 03:07:29;;;;;;;3.37;2.92;;;;;;;26.31;37.86;101629.44;144994;914;5002;-86
2021/09/03 03:09:55;;;;;;;3.30;2.35;;;;;;;26.35;37.61;101631.13;144994;914;5002;-85
2021/09/03 03:12:22;;;;;;;3.85;2.80;;;;;;;26.35;37.11;101634.66;144994;577;5002;-86
2021/09/03 03:14:49;;;;;;;3.37;2.83;;;;;;;26.36;37.15;101638.19;144994;640;5002;-87
2021/09/03 03:17:17;;;;;;;3.42;3.05;;;;;;;26.38;36.90;101636.41;144994;587;5002;-84
2021/09/03 03:19:45;;;;;;;2.80;2.58;;;;;;;26.39;37.47;101639.03;144994;570;5002;-86
2021/09/03 03:22:11;;;;;;;4.25;3.05;;;;;;;26.48;37.00;101637.94;144994;563;5002;-87
2021/09/03 03:24:38;;;;;;;4.20;2.70;;;;;;;26.52;37.19;101638.72;144993;572;5002;-85
2021/09/03 03:27:06;;;;;;;3.35;2.60;;;;;;;26.50;37.47;101638.75;144994;564;5003;-87
2021/09/03 03:29:33;;;;;;;3.47;2.65;;;;;;;26.43;37.05;101643.34;144994;574;5002;-86
2021/09/03 03:32:02;;;;;;;5.35;2.70;;;;;;;26.32;37.04;101640.06;144993;637;5002;-87
2021/09/03 03:34:31;;;;;;;3.65;2.80;;;;;;;26.37;37.48;101639.97;144994;812;5003;-85
2021/09/03 03:36:57;;;;;;;3.10;2.55;;;;;;;26.39;37.30;101638.13;144994;576;5002;-85
2021/09/03 03:39:24;;;;;;;4.37;2.85;;;;;;;26.33;37.36;101638.28;144994;620;5002;-86
2021/09/03 03:41:52;;;;;;;3.58;3.10;;;;;;;26.31;37.30;101640.97;144994;915;5002;-86
2021/09/03 03:44:20;;;;;;;2.58;2.37;;;;;;;26.29;37.18;101634.78;144994;585;5002;-87
2021/09/03 03:46:47;;;;;;;3.60;3.12;;;;;;;26.33;37.26;101638.28;144994;569;5002;-87
2021/09/03 03:49:14;;;;;;;3.47;2.50;;;;;;;26.35;37.61;101628.47;144994;564;5002;-87
2021/09/03 03:51:41;;;;;;;3.58;2.97;;;;;;;26.40;37.37;101639.87;144994;587;5002;-86
2021/09/03 03:54:10;;;;;;;5.70;2.92;;;;;;;26.29;36.87;101636.59;144993;688;5002;-84
2021/09/03 03:56:37;;;;;;;3.33;2.90;;;;;;;26.29;37.02;101641.91;144994;581;5002;-85
2021/09/03 03:59:04;;;;;;;3.50;2.60;;;;;;;26.31;37.43;101648.06;144994;577;5002;-85
2021/09/03 04:01:30;;;;;;;4.32;3.10;;;;;;;26.32;37.28;101642.72;144994;579;5002;-87
2021/09/03 04:03:57;;;;;;;4.47;2.97;;;;;;;26.40;37.11;101650.53;144994;915;5002;-87
2021/09/03 04:06:24;;;;;;;11.63;3.60;;;;;;;26.45;36.90;101643.31;144994;566;5002;-83
2021/09/03 04:08:53;;;;;;;12.02;3.55;;;;;;;26.49;36.78;101653.00;144994;866;5002;-83
2021/09/03 04:11:20;;;;;;;6.32;3.35;;;;;;;26.53;37.14;101652.00;144993;735;5002;-83
2021/09/03 04:13:46;;;;;;;7.75;3.08;;;;;;;26.58;37.60;101652.81;144993;915;5002;-85
2021/09/03 04:16:13;;;;;;;6.22;3.20;;;;;;;26.56;37.23;101646.63;144994;914;5002;-86
2021/09/03 04:18:40;;;;;;;6.25;3.45;;;;;;;26.52;37.59;101654.69;144994;797;5002;-87
2021/09/03 04:21:07;;;;;;;5.55;3.10;;;;;;;26.48;37.23;101648.56;144994;585;5002;-86
2021/09/03 04:23:33;;;;;;;6.37;3.10;;;;;;;26.52;37.53;101660.94;144994;673;5002;-87
2021/09/03 04:26:00;;;;;;;4.97;3.12;;;;;;;26.48;38.05;101663.69;144994;704;5002;-88
2021/09/03 04:28:26;;;;;;;5.50;3.30;;;;;;;26.43;38.03;101656.66;144994;833;5002;-86
2021/09/03 04:30:53;;;;;;;6.40;3.20;;;;;;;26.43;37.84;101666.44;144994;563;5002;-87
2021/09/03 04:33:19;;;;;;;3.75;2.97;;;;;;;26.39;37.51;101665.62;144994;915;5002;-85
2021/09/03 04:35:46;;;;;;;4.25;3.00;;;;;;;26.41;37.72;101674.47;144994;915;5002;-86
2021/09/03 04:38:13;;;;;;;2.80;2.60;;;;;;;26.38;38.16;101674.53;144994;565;5002;-87
2021/09/03 04:40:39;;;;;;;5.53;2.92;;;;;;;26.43;38.12;101675.28;144993;585;5002;-86
2021/09/03 04:43:06;;;;;;;5.50;2.70;;;;;;;26.50;37.48;101677.84;144994;570;5002;-88
2021/09/03 04:45:32;;;;;;;4.18;2.67;;;;;;;26.56;37.64;101680.38;144994;915;5002;-85
2021/09/03 04:47:59;;;;;;;5.28;3.08;;;;;;;26.64;37.70;101689.06;144994;915;5002;-86
2021/09/03 04:50:25;;;;;;;3.42;3.12;;;;;;;26.69;37.20;101683.66;144994;913;5002;-86
2021/09/03 04:52:52;;;;;;;3.92;2.92;;;;;;;26.75;37.84;101684.41;144994;884;5002;-85
2021/09/03 04:55:19;;;;;;;3.65;3.05;;;;;;;26.79;37.77;101680.75;144994;565;5002;-85
2021/09/03 04:57:45;;;;;;;4.18;3.35;;;;;;;26.85;37.45;101685.06;144994;581;5002;-85
2021/09/03 05:00:17;;;;;;;4.28;3.08;;;;;;;26.89;37.68;101686.75;144994;585;5002;-84
2021/09/03 05:02:44;;;;;;;6.35;3.10;;;;;;;26.93;37.29;101687.53;144994;629;5002;-86
2021/09/03 05:05:11;;;;;;;4.18;3.00;;;;;;;26.94;37.79;101689.31;144994;596;5002;-87
2021/09/03 05:07:38;;;;;;;6.05;3.40;;;;;;;26.94;37.51;101687.50;144994;592;5002;-87
2021/09/03 05:10:08;;;;;;;4.57;3.17;;;;;;;26.94;37.72;101697.31;144994;906;5002;-84
2021/09/03 05:12:37;;;;;;;5.47;3.60;;;;;;;27.04;37.87;101695.28;144994;653;5002;-88
2021/09/03 05:15:11;;;;;;;5.32;3.50;;;;;;;27.11;37.84;101699.59;144994;621;5002;-87
2021/09/03 05:17:38;;;;;;;6.30;3.60;;;;;;;27.15;37.69;101702.13;144994;728;5002;-87
2021/09/03 05:20:06;;;;;;;10.50;3.90;;;;;;;27.13;37.62;101703.06;144994;600;5002;-86
2021/09/03 05:22:34;;;;;;;5.75;3.40;;;;;;;27.17;37.72;101712.75;144994;591;5002;-86
2021/09/03 05:25:02;;;;;;;5.32;3.55;;;;;;;27.19;37.62;101712.69;144994;582;5002;-86
2021/09/03 05:27:28;;;;;;;3.83;3.47;;;;;;;27.19;37.76;101723.34;144993;581;5002;-85
2021/09/03 05:29:55;;;;;;;4.95;3.28;;;;;;;27.19;37.87;101720.69;144994;564;5002;-85
2021/09/03 05:32:22;;;;;;;3.67;3.12;;;;;;;27.23;37.85;101722.38;144994;604;5002;-87
2021/09/03 05:34:49;;;;;;;3.92;3.28;;;;;;;27.29;37.78;101724.91;144994;594;5002;-87
2021/09/03 05:37:15;;;;;;;4.35;3.75;;;;;;;27.27;37.73;101729.41;144994;609;5002;-86
2021/09/03 05:39:42;;;;;;;4.55;2.90;;;;;;;27.27;37.90;101724.06;144994;582;5002;-85
2021/09/03 05:42:10;;;;;;;4.90;3.35;;;;;;;27.28;37.82;101724.03;144994;671;5002;-85
2021/09/03 05:44:37;;;;;;;3.67;3.37;;;;;;;27.30;37.76;101716.00;144994;591;5002;-87
2021/09/03 05:47:04;;;;;;;6.62;5.15;;;;;;;27.36;37.71;101726.53;144994;594;5002;-85
2021/09/03 05:49:30;;;;;;;7.55;3.72;;;;;;;27.43;37.98;101730.81;144994;774;5002;-87
2021/09/03 05:51:57;;;;;;;5.62;3.37;;;;;;;27.47;37.68;101729.84;144994;656;5002;-84
2021/09/03 05:54:23;;;;;;;5.15;3.15;;;;;;;27.49;37.48;101730.66;144994;633;5002;-88
2021/09/03 05:56:50;;;;;;;3.78;3.22;;;;;;;27.53;37.54;101736.78;144994;571;5002;-87
2021/09/03 05:59:17;;;;;;;6.18;3.00;;;;;;;27.59;37.62;101733.09;144994;569;5002;-86
2021/09/03 06:01:43;;;;;;;4.37;3.17;;;;;;;27.67;37.32;101736.44;144994;553;5002;-86
2021/09/03 06:04:10;;;;;;;6.95;3.05;;;;;;;27.67;36.97;101733.78;144994;576;5002;-87
2021/09/03 06:06:36;;;;;;;6.22;2.72;;;;;;;27.68;37.21;101739.06;144994;683;5002;-86
2021/09/03 06:09:03;;;;;;;4.03;3.10;;;;;;;27.71;37.35;101729.22;144994;626;5002;-86
2021/09/03 06:11:30;;;;;;;8.88;4.80;;;;;;;27.77;37.33;101737.94;144994;569;5002;-87
2021/09/03 06:13:57;;;;;;;4.85;3.95;;;;;;;27.79;37.14;101738.78;144993;571;5002;-87
2021/09/03 06:16:24;;;;;;;5.62;4.18;;;;;;;27.87;37.16;101734.13;144994;737;5002;-84
2021/09/03 06:18:51;;;;;;;6.25;4.05;;;;;;;27.97;36.91;101741.94;144994;576;5002;-86
2021/09/03 06:21:18;;;;;;;6.80;4.55;;;;;;;27.98;36.96;101738.31;144994;763;5002;-87
2021/09/03 06:23:45;;;;;;;4.20;3.50;;;;;;;28.08;36.95;101731.84;144994;690;5002;-85
2021/09/03 06:26:11;;;;;;;5.80;4.65;;;;;;;28.14;36.67;101734.34;144994;564;5002;-85
2021/09/03 06:28:38;;;;;;;5.97;5.30;;;;;;;28.16;36.89;101737.81;144994;637;5002;-84
2021/09/03 06:31:05;;;;;;;5.53;4.00;;;;;;;28.18;36.71;101735.13;144994;614;5002;-84
2021/09/03 06:33:31;;;;;;;9.63;6.95;;;;;;;28.14;36.90;101742.34;144994;572;4567;-85
2021/09/03 06:35:58;;;;;;;6.03;5.00;;;;;;;28.17;36.97;101736.03;144994;693;4572;-85
2021/09/03 06:38:26;;;;;;;9.30;5.30;;;;;;;28.29;36.83;101733.00;144992;590;6002;-85
2021/09/03 06:40:52;;;;;;;4.15;3.45;;;;;;;28.36;36.55;101737.28;144992;669;6002;-86
2021/09/03 06:43:19;;;;;;;4.15;3.33;;;;;;;28.35;36.49;101745.34;144992;645;6002;-85
2021/09/03 06:45:46;;;;;;;6.18;3.83;;;;;;;28.41;36.44;101745.13;144992;585;6002;-87
2021/09/03 06:48:12;;;;;;;6.70;5.28;;;;;;;28.54;36.29;101749.22;144992;642;6003;-85
2021/09/03 06:50:38;;;;;;;4.80;3.85;;;;;;;28.59;34.77;101744.63;144992;580;6002;-85
2021/09/03 06:53:05;;;;;;;8.32;4.55;;;;;;;28.43;36.29;101745.97;144992;594;6002;-84
2021/09/03 06:55:32;;;;;;;6.03;3.58;;;;;;;28.46;36.14;101745.00;144992;598;6003;-85
2021/09/03 06:57:58;;;;;;;5.30;3.47;;;;;;;28.51;36.19;101748.44;144992;582;6002;-85
2021/09/03 07:00:25;;;;;;;8.07;3.10;;;;;;;28.60;35.87;101761.53;144992;591;6002;-86
2021/09/03 07:02:51;;;;;;;3.95;2.90;;;;;;;28.73;35.88;101754.03;144992;569;6002;-85
2021/09/03 07:05:18;;;;;;;5.68;3.40;;;;;;;28.84;35.67;101749.25;144992;590;6002;-85
2021/09/03 07:07:45;;;;;;;3.85;3.40;;;;;;;28.88;33.72;101748.22;144992;573;6002;-85
2021/09/03 07:10:12;;;;;;;4.00;3.17;;;;;;;28.87;35.25;101745.59;144992;574;6002;-85
2021/09/03 07:12:38;;;;;;;9.48;3.00;;;;;;;28.69;34.40;101747.03;144992;703;6002;-84
2021/09/03 07:15:05;;;;;;;4.20;3.20;;;;;;;28.72;35.60;101755.81;144992;581;6002;-84
2021/09/03 07:17:32;;;;;;;5.97;4.07;;;;;;;28.83;35.75;101760.84;144991;613;6002;-84
2021/09/03 07:19:58;;;;;;;4.72;2.95;;;;;;;28.97;35.05;101754.19;144992;603;6002;-85
2021/09/03 07:22:24;;;;;;;3.85;3.20;;;;;;;28.95;34.56;101760.47;144992;608;6002;-86
2021/09/03 07:24:51;;;;;;;6.28;3.60;;;;;;;28.81;35.06;101757.38;144992;615;6002;-86
2021/09/03 07:27:17;;;;;;;3.53;3.00;;;;;;;28.79;35.45;101761.84;144992;581;6002;-83
2021/09/03 07:29:44;;;;;;;5.05;3.15;;;;;;;28.92;35.24;101762.34;144992;572;6002;-85
2021/09/03 07:32:10;;;;;;;4.82;2.83;;;;;;;29.11;34.85;101758.22;144992;580;6002;-85
2021/09/03 07:34:37;;;;;;;4.87;3.00;;;;;;;29.23;34.90;101756.97;144992;564;6002;-84
2021/09/03 07:37:03;;;;;;;3.58;3.05;;;;;;;29.45;35.05;101769.66;144992;684;6002;-85
2021/09/03 07:39:30;;;;;;;4.75;2.95;;;;;;;29.49;34.78;101763.25;144992;698;6002;-83
2021/09/03 07:41:58;;;;;;;3.37;2.90;;;;;;;29.55;34.53;101768.41;144992;587;6002;-86
2021/09/03 07:44:26;;;;;;;3.12;2.80;;;;;;;29.31;33.87;101762.94;144992;586;6002;-84
2021/09/03 07:46:52;;;;;;;3.92;3.12;;;;;;;29.39;34.93;101764.50;144992;564;6002;-85
2021/09/03 07:49:19;;;;;;;4.60;3.05;;;;;;;29.48;34.82;101774.91;144992;653;6002;-85
2021/09/03 07:51:46;;;;;;;3.83;3.28;;;;;;;29.44;35.11;101768.75;144992;628;6002;-86
2021/09/03 07:54:12;;;;;;;3.78;3.03;;;;;;;29.48;34.72;101764.19;144992;563;6002;-85
2021/09/03 07:56:39;;;;;;;3.60;2.62;;;;;;;29.45;34.08;101764.31;144992;579;6002;-84
2021/09/03 07:59:05;;;;;;;3.60;3.00;;;;;;;29.39;34.91;101760.00;144992;565;6002;-85
2021/09/03 08:01:32;;;;;;;6.28;2.97;;;;;;;29.32;34.61;101766.50;144992;622;6002;-85
2021/09/03 08:03:59;;;;;;;5.37;3.30;;;;;;;29.01;35.69;101762.06;144992;590;6002;-85
2021/09/03 08:06:25;;;;;;;3.08;2.78;;;;;;;28.72;35.66;101773.66;144992;694;6002;-84
2021/09/03 08:08:52;;;;;;;4.15;2.58;;;;;;;28.62;35.75;101765.06;144992;571;6002;-84
2021/09/03 08:11:19;;;;;;;4.18;2.80;;;;;;;28.52;35.82;101766.19;144992;733;6002;-86
2021/09/03 08:13:45;;;;;;;3.78;2.87;;;;;;;28.42;36.05;101770.91;144992;566;6002;-85
2021/09/03 08:16:12;;;;;;;3.50;3.20;;;;;;;28.34;36.58;101784.47;144992;685;6002;-84
2021/09/03 08:18:38;;;;;;;6.18;3.30;;;;;;;28.14;36.66;101778.81;144992;720;6002;-83
2021/09/03 08:21:05;;;;;;;5.10;3.17;;;;;;;28.03;37.37;101779.09;144992;654;6002;-84
2021/09/03 08:23:33;;;;;;;4.35;3.30;;;;;;;27.96;37.18;101782.84;144992;736;6002;-85
2021/09/03 08:26:00;;;;;;;4.82;3.30;;;;;;;27.82;37.45;101788.50;144992;660;6002;-85
2021/09/03 08:28:26;;;;;;;4.93;3.22;;;;;;;27.71;38.12;101783.44;144992;581;6002;-85
2021/09/03 08:30:53;;;;;;;3.85;3.42;;;;;;;27.75;38.09;101787.78;144992;577;6002;-83
2021/09/03 08:33:19;;;;;;;8.57;3.35;;;;;;;27.69;37.92;101779.94;144992;598;6002;-84
2021/09/03 08:35:46;;;;;;;4.85;3.72;;;;;;;27.71;38.30;101783.44;144992;674;6002;-84
2021/09/03 08:38:13;;;;;;;4.68;3.60;;;;;;;27.90;37.77;101773.16;144992;616;6002;-85
2021/09/03 08:40:39;;;;;;;4.10;3.40;;;;;;;28.01;37.72;101772.94;144991;566;6002;-84
2021/09/03 08:43:07;;;;;;;3.37;2.85;;;;;;;28.14;37.25;101765.47;144992;566;6002;-85
2021/09/03 08:45:34;;;;;;;3.72;3.00;;;;;;;28.16;37.78;101766.31;144992;575;6002;-84
2021/09/03 08:48:02;;;;;;;4.03;3.10;;;;;;;28.35;37.40;101759.53;144992;594;6002;-85
2021/09/03 08:50:28;;;;;;;3.95;3.42;;;;;;;28.29;37.58;101766.84;144992;648;6002;-85
2021/09/03 08:52:55;;;;;;;5.05;2.90;;;;;;;28.46;37.30;101763.69;144992;616;6002;-85
2021/09/03 08:55:22;;;;;;;5.97;3.87;;;;;;;28.48;37.59;101753.88;144992;637;6002;-85
2021/09/03 08:57:48;;;;;;;4.82;3.17;;;;;;;28.51;37.51;101773.34;144992;659;6002;-86
2021/09/03 09:00:30;;;;;;;3.95;3.10;;;;;;;28.65;37.04;101753.38;144992;569;6002;-85
2021/09/03 09:03:02;;;;;;;6.70;3.47;;;;;;;28.68;37.36;101758.63;144992;579;6002;-87
2021/09/03 09:05:49;;;;;;;3.90;3.30;;;;;;;28.77;36.82;101753.88;144992;576;6002;-85
2021/09/03 09:08:16;;;;;;;5.25;2.92;;;;;;;28.62;37.21;101751.69;144992;605;6004;-85
2021/09/03 09:10:52;;;;;;;4.65;3.05;;;;;;;28.62;37.30;101743.69;144992;653;6004;-85
2021/09/03 09:13:21;;;;;;;5.50;2.90;;;;;;;28.76;37.02;101752.16;144992;597;6004;-85
2021/09/03 09:16:19;;;;;;;3.10;2.78;;;;;;;28.65;37.13;101743.59;144992;592;6004;-87
2021/09/03 09:18:54;;;;;;;3.83;3.15;;;;;;;28.76;36.93;101729.88;144992;584;6004;-83
2021/09/03 09:21:28;;;;;;;5.35;2.92;;;;;;;28.66;37.20;101736.44;144992;587;6004;-85
2021/09/03 09:24:12;;;;;;;4.93;2.83;;;;;;;28.50;37.45;101734.19;144992;626;6005;-84
2021/09/03 09:26:47;;;;;;;5.80;2.87;;;;;;;28.57;37.37;101727.78;144992;589;6004;-87
2021/09/03 09:32:19;;;;;;;4.18;2.80;;;;;;;28.63;37.55;101731.19;144992;574;6002;-86
2021/09/03 09:34:56;;;;;;;4.97;2.70;;;;;;;28.64;37.61;101724.94;144992;623;6004;-87
2021/09/03 09:37:29;;;;;;;5.07;3.00;;;;;;;28.82;37.31;101719.00;144992;578;6004;-84
2021/09/03 09:40:01;;;;;;;5.12;3.08;;;;;;;28.72;37.30;101718.44;144992;624;6004;-84
2021/09/03 09:42:32;;;;;;;5.65;3.05;;;;;;;28.86;37.16;101715.34;144992;589;6004;-85
2021/09/03 09:45:13;;;;;;;3.62;2.70;;;;;;;28.82;37.73;101713.66;144992;667;6004;-86
2021/09/03 09:47:42;;;;;;;2.90;2.62;;;;;;;28.88;37.05;101700.12;144992;576;6004;-84
2021/09/03 09:50:28;;;;;;;4.82;2.85;;;;;;;28.57;38.08;101701.09;144992;597;6004;-85
2021/09/03 09:53:08;;;;;;;5.50;2.85;;;;;;;28.78;37.67;101714.69;144992;587;6004;-88
2021/09/03 09:55:37;;;;;;;3.25;2.83;;;;;;;28.77;37.48;101708.47;144992;562;6004;-86
2021/09/03 09:58:05;;;;;;;5.05;2.95;;;;;;;28.63;37.65;101702.66;144992;640;6004;-86
2021/09/03 10:00:35;;;;;;;2.60;2.20;;;;;;;28.59;37.60;101699.22;144992;671;6004;-84
2021/09/03 10:03:05;;;;;;;5.53;2.53;;;;;;;28.65;37.68;101697.28;144992;583;6004;-85
2021/09/03 10:05:32;;;;;;;3.12;2.50;;;;;;;28.57;38.37;101692.13;144992;662;6004;-83
2021/09/03 10:07:59;;;;;;;5.47;2.80;;;;;;;28.50;38.75;101688.78;144992;566;6004;-84
2021/09/03 10:10:26;;;;;;;5.68;4.18;;;;;;;28.47;38.69;101685.34;144992;611;6004;-86
2021/09/03 10:12:53;;;;;;;4.28;3.30;;;;;;;28.57;38.50;101679.72;144992;612;6004;-85
2021/09/03 10:15:20;;;;;;;4.87;3.42;;;;;;;28.61;38.43;101688.50;144992;697;6004;-85
2021/09/03 10:17:47;;;;;;;4.07;2.92;;;;;;;28.58;38.52;101678.78;144991;601;6000;-84
2021/09/03 10:20:15;;;;;;;5.35;3.08;;;;;;;28.61;38.41;101682.28;144991;631;6002;-85
2021/09/03 10:22:44;;;;;;;3.33;2.60;;;;;;;28.78;37.60;101688.00;144992;587;6002;-85
2021/09/03 10:25:12;;;;;;;4.72;2.55;;;;;;;28.90;37.23;101676.88;144992;659;6002;-85
2021/09/03 10:27:40;;;;;;;4.20;2.78;;;;;;;28.76;37.90;101685.38;144992;723;6002;-86
2021/09/03 10:30:19;;;;;;;6.12;3.30;;;;;;;28.87;37.70;101678.78;144992;598;6002;-86
2021/09/03 10:32:46;;;;;;;3.35;2.80;;;;;;;28.73;38.09;101679.22;144992;582;6002;-85
2021/09/03 10:35:20;;;;;;;5.28;3.40;;;;;;;28.82;38.37;101678.94;144992;701;6002;-84
2021/09/03 10:37:50;;;;;;;5.80;3.10;;;;;;;28.86;37.84;101679.72;144992;572;6002;-86
2021/09/03 10:40:40;;;;;;;6.25;2.78;;;;;;;29.02;36.61;101677.44;144992;596;6002;-84
2021/09/03 10:43:07;;;;;;;5.95;3.25;;;;;;;28.92;37.50;101682.19;144992;585;6002;-83
2021/09/03 10:45:40;;;;;;;3.62;3.00;;;;;;;29.02;37.04;101680.13;144992;726;6002;-84
2021/09/03 10:48:26;;;;;;;4.18;2.80;;;;;;;29.12;36.59;101681.56;144992;677;6002;-84
2021/09/03 10:50:56;;;;;;;4.00;2.80;;;;;;;28.98;36.79;101668.63;144992;636;6002;-85
2021/09/03 10:53:37;;;;;;;3.78;3.03;;;;;;;29.01;36.39;101665.00;144992;657;6002;-86
2021/09/03 10:56:17;;;;;;;3.97;2.70;;;;;;;29.02;37.17;101661.41;144992;588;6002;-83
2021/09/03 10:58:47;;;;;;;4.47;2.90;;;;;;;28.72;38.28;101665.00;144992;563;6002;-84
2021/09/03 11:01:32;;;;;;;3.85;2.60;;;;;;;28.76;37.75;101649.75;144992;667;6002;-87
2021/09/03 11:04:27;;;;;;;3.80;2.75;;;;;;;28.76;38.00;101652.41;144992;646;6004;-85
2021/09/03 11:07:08;;;;;;;5.28;2.70;;;;;;;28.53;38.10;101650.44;144992;582;6002;-81
2021/09/03 11:09:36;;;;;;;5.93;2.67;;;;;;;28.59;38.15;101650.28;144992;613;6002;-82
2021/09/03 11:12:11;;;;;;;5.78;3.00;;;;;;;28.62;37.55;101644.84;144992;578;6015;-87
2021/09/03 11:14:40;;;;;;;5.20;2.70;;;;;;;28.88;37.24;101648.50;144992;569;6002;-84
2021/09/03 11:17:13;;;;;;;4.05;2.95;;;;;;;28.86;37.28;101647.66;144992;672;6002;-87
2021/09/03 11:19:45;;;;;;;8.38;3.25;;;;;;;28.84;37.38;101645.03;144992;667;6002;-85
2021/09/03 11:22:14;;;;;;;7.40;2.97;;;;;;;28.84;37.36;101644.16;144992;600;6002;-86
2021/09/03 11:24:49;;;;;;;7.57;4.82;;;;;;;28.71;37.77;101638.31;144992;669;6002;-85
2021/09/03 11:27:18;;;;;;;6.15;2.72;;;;;;;28.73;37.60;101657.84;144992;617;6002;-85
2021/09/03 11:29:49;;;;;;;4.47;2.72;;;;;;;28.61;37.86;101636.87;144992;581;6002;-84
2021/09/03 11:32:27;;;;;;;6.87;3.00;;;;;;;28.71;37.65;101647.22;144992;589;6002;-85
2021/09/03 11:35:06;;;;;;;6.40;2.72;;;;;;;28.74;37.58;101655.13;144992;588;6002;-85
2021/09/03 11:37:52;;;;;;;4.25;2.40;;;;;;;28.78;37.49;101626.53;144992;563;6002;-88
2021/09/03 11:40:26;;;;;;;3.83;2.62;;;;;;;28.85;37.29;101613.84;144992;597;6002;-85
2021/09/03 11:43:04;;;;;;;3.72;2.47;;;;;;;28.61;37.49;101619.06;144992;579;6002;-85